This is the latest recevied weather packets stored in our database for station/object K7VLL. If no packets are shown the sender has not sent any weather packets the latest 10 day(s).
| Time | Temp. | Humidity | Pressure | Rain* | Wind** | Luminosity | Snow |
|---|---|---|---|---|---|---|---|
| 1777877308 | 23.33° C | 26% | 1088.5 hPa | 0 mm | - | 0 W/m² | - |
| 1777875506 | 23.33° C | 27% | 1088.7 hPa | 0 mm | - | 0 W/m² | - |
| 1777873707 | 23.33° C | 27% | 1089 hPa | 0 mm | - | 0 W/m² | - |
| 1777871901 | 23.89° C | 26% | 1088.8 hPa | 0 mm | - | 0 W/m² | - |
| 1777870097 | 24.44° C | 24% | 1088.6 hPa | 0 mm | - | 0 W/m² | - |
| 1777868296 | 25° C | 21% | 1088.3 hPa | 0 mm | - | 0 W/m² | - |
| 1777866494 | 25.56° C | 18% | 1087.7 hPa | 0 mm | - | 0 W/m² | - |
| 1777864689 | 26.11° C | 15% | 1087.3 hPa | 0 mm | - | 0 W/m² | - |
| 1777862887 | 26.67° C | 14% | 1086.5 hPa | 0 mm | - | 0 W/m² | - |
| 1777861084 | 26.67° C | 17% | 1086.2 hPa | 0 mm | - | 0 W/m² | - |
| 1777859281 | 27.78° C | 14% | 1085.7 hPa | 0 mm | - | 10 W/m² | - |
| 1777857481 | 29.44° C | 10% | 1085.4 hPa | 0 mm | - | 21 W/m² | - |
| 1777855679 | 30° C | 9% | 1085.9 hPa | 0 mm | - | 51 W/m² | - |
| 1777853878 | 31.67° C | 8% | 1085.6 hPa | 0 mm | - | 172 W/m² | - |
| 1777852073 | 32.22° C | 7% | 1085.6 hPa | 0 mm | - | 247 W/m² | - |
| 1777850267 | 32.78° C | 8% | 1085.5 hPa | 0 mm | - | 354 W/m² | - |
| 1777848464 | 33.33° C | 8% | 1085.6 hPa | 0 mm | - | 353 W/m² | - |
| 1777846660 | 33.89° C | 8% | 1086 hPa | 0 mm | - | 480 W/m² | - |
| 1777844860 | 35° C | 13% | 1085.8 hPa | 0 mm | - | 546 W/m² | - |
| 1777843055 | 33.33° C | 16% | 1086.4 hPa | 0 mm | - | 632 W/m² | - |
| 1777841255 | 31.67° C | 17% | 1087.1 hPa | 0 mm | - | 337 W/m² | - |
| 1777839452 | 31.11° C | 18% | 1087.4 hPa | 0 mm | - | 266 W/m² | - |
| 1777837651 | 30.56° C | 18% | 1088 hPa | 0 mm | - | 257 W/m² | - |
| 1777835851 | 29.44° C | 23% | 1088.7 hPa | 0 mm | - | 310 W/m² | - |
| 1777834047 | 28.33° C | 25% | 1089 hPa | 0 mm | - | 234 W/m² | - |
* Rain latest hour (hover to see other rain measurements)
** Current wind speed in m/s (hover to see current wind gust speed)